KAKQ/AKQ METAR and TAF weather

Enter ICAO airport designator
Station Type Date Time Source
KAKQ METAR 2018/12/10 23:54 UTC NOAA

KAKQ 102354Z AUTO VRB04KT 10SM CLR 01/M03 A3015 RMK AO2 SLP213 T00061028 10017 20006 51022


Station Type Date Time Source
KAKQ Decoded METAR 2018/12/10 23:54 UTC NOAA

WAKEFIELD MUNICIPAL AIRPOR, VA, United States (KAKQ) 36-59N 077-00W 33M
Dec 10, 2018 - 06:54 PM EST / 2018.12.10 2354 UTC
Wind: Variable at 5 MPH (4 KT):0
Visibility: 10 mile(s):0
Sky conditions: clear
Temperature: 33.1 F (0.6 C)
Windchill: 28 F (-2 C):1
Dew Point: 27.0 F (-2.8 C)
Relative Humidity: 77%
Pressure (altimeter): 30.15 in. Hg (1020 hPa)
Pressure tendency: 0.06 inches (2.2 hPa) higher than three hours ago
ob: KAKQ 102354Z AUTO VRB04KT 10SM CLR 01/M03 A3015 RMK AO2 SLP213 T00061028 10017 20006 51022
cycle: 0

Station Type Date Time Source
KAKQ TAF UTC NOAA

Error!


Example: see airport list